Salt Lake City, Utah
Traffic Map
Current Weather Conditions
Salt Lake City, Utah
Overcast Light Rain
Overcast
42°
Feels Like: 38°
Wind Chill: 38° Ceiling: 2700
Heat Index: 42° Visibility: 10mi
Dew Point: 40° Wind: 6mph
Humidity: 92% Direction: 180° (S)
Pressure: 29.86in Gusts: 0mph
Raw Report DataKSLC 272054Z 18005KT 10SM -RA FEW015 BKN027 OVC060 06/04 A2986 RMK AO2 RAE35B48 SLP096 P0001 60016 T00560044 56010
Traffic Incident Summary
Active as of:
Severity:
Category:
InformationThere was an issue retrieving the traffic information for this location. Please try a different location or try again shortly.
Advertisements
Track Severe Weather on mobile